createdAt,value
2023-02-08T00:02:50.938Z,-7.68
2023-02-08T00:06:52.402Z,-7.88
2023-02-08T00:10:53.889Z,-8.00
2023-02-08T00:14:55.322Z,-8.03
2023-02-08T00:18:58.126Z,-8.14
2023-02-08T00:22:59.605Z,-7.82
2023-02-08T00:27:01.070Z,-7.80
2023-02-08T00:31:03.038Z,-7.75
2023-02-08T00:35:06.503Z,-7.80
2023-02-08T00:39:07.988Z,-7.92
2023-02-08T00:43:09.607Z,-7.78
2023-02-08T00:47:11.023Z,-7.69
2023-02-08T00:51:14.157Z,-7.62
2023-02-08T00:55:15.685Z,-7.63
2023-02-08T00:59:17.109Z,-7.40
2023-02-08T01:03:18.670Z,-7.48
2023-02-08T01:07:21.495Z,-7.47
2023-02-08T01:11:24.841Z,-7.53
2023-02-08T01:15:26.287Z,-7.61
2023-02-08T01:19:27.762Z,-7.65
2023-02-08T01:23:30.535Z,-7.50
2023-02-08T01:27:31.989Z,-7.51
2023-02-08T01:31:35.561Z,-7.51
2023-02-08T01:35:37.031Z,-7.40
2023-02-08T01:39:39.834Z,-7.51
2023-02-08T01:44:03.702Z,-7.46
2023-02-08T01:48:11.109Z,-7.57
2023-02-08T01:52:17.225Z,-7.68
2023-02-08T01:56:23.388Z,-7.73
2023-02-08T02:00:25.162Z,-7.74
2023-02-08T02:04:27.382Z,-7.67
2023-02-08T02:08:30.432Z,-7.67
2023-02-08T02:12:35.758Z,-7.67
2023-02-08T02:16:37.369Z,-7.84
2023-02-08T02:20:55.928Z,-7.59
2023-02-08T02:25:22.482Z,-7.64
2023-02-08T02:29:50.292Z,-7.84
2023-02-08T02:34:04.541Z,-8.03
2023-02-08T02:38:12.875Z,-8.06
2023-02-08T02:42:23.075Z,-8.02
2023-02-08T02:46:33.242Z,-7.87
2023-02-08T02:50:41.949Z,-7.78
2023-02-08T02:54:49.435Z,-7.70
2023-02-08T02:58:52.399Z,-7.65
2023-02-08T03:02:53.862Z,-7.68
2023-02-08T03:07:05.708Z,-7.70
2023-02-08T03:11:16.278Z,-7.82
2023-02-08T03:15:28.686Z,-7.80
2023-02-08T03:19:36.518Z,-8.18
2023-02-08T03:23:46.168Z,-8.31
2023-02-08T03:28:00.168Z,-8.18
2023-02-08T03:32:06.812Z,-8.33
2023-02-08T03:36:15.877Z,-8.55
2023-02-08T03:40:23.955Z,-8.37
2023-02-08T03:44:29.571Z,-8.46
2023-02-08T03:48:33.186Z,-8.69
2023-02-08T03:52:36.021Z,-8.82
2023-02-08T03:56:45.007Z,-8.91
2023-02-08T04:00:54.801Z,-8.92
2023-02-08T04:04:58.081Z,-8.93
2023-02-08T04:08:59.533Z,-8.81
2023-02-08T04:13:02.299Z,-8.80
2023-02-08T04:17:03.739Z,-8.81
2023-02-08T04:21:05.881Z,-8.89
2023-02-08T04:25:07.510Z,-9.00
2023-02-08T04:29:10.398Z,-9.09
2023-02-08T04:33:11.956Z,-9.11
2023-02-08T04:37:13.377Z,-9.06
2023-02-08T04:41:14.945Z,-8.90
2023-02-08T04:45:18.025Z,-8.81
2023-02-08T04:49:19.674Z,-8.78
2023-02-08T04:53:21.098Z,-8.70
2023-02-08T04:57:22.533Z,-8.72
2023-02-08T05:01:25.351Z,-8.61
2023-02-08T05:05:27.592Z,-8.49
2023-02-08T05:09:29.150Z,-8.61
2023-02-08T05:13:30.619Z,-8.68
2023-02-08T05:17:33.429Z,-8.82
2023-02-08T05:21:34.891Z,-8.80
2023-02-08T05:25:37.730Z,-9.15
2023-02-08T05:29:39.174Z,-9.34
2023-02-08T05:33:41.983Z,-9.39
2023-02-08T05:37:43.424Z,-9.43
2023-02-08T05:41:45.071Z,-9.32
2023-02-08T05:45:46.569Z,-9.35
2023-02-08T05:49:49.374Z,-9.40
2023-02-08T05:53:50.869Z,-9.43
2023-02-08T05:57:52.315Z,-9.41
2023-02-08T06:01:53.786Z,-9.41
2023-02-08T06:06:00.337Z,-9.37
2023-02-08T06:10:01.806Z,-9.43
2023-02-08T06:14:03.396Z,-9.46
2023-02-08T06:18:05.125Z,-8.85
2023-02-08T06:22:07.961Z,-8.40
2023-02-08T06:26:09.389Z,-8.06
2023-02-08T06:30:11.790Z,-7.95
2023-02-08T06:34:13.237Z,-7.66
2023-02-08T06:38:16.013Z,-7.55
2023-02-08T06:42:17.449Z,-7.41
2023-02-08T06:46:18.974Z,-7.38
2023-02-08T06:50:22.561Z,-7.32
2023-02-08T06:54:26.594Z,-7.38
2023-02-08T06:58:28.118Z,-7.37
2023-02-08T07:02:29.568Z,-7.21
2023-02-08T07:06:31.200Z,-7.04
2023-02-08T07:10:34.440Z,-7.00
2023-02-08T07:14:39.290Z,-6.89
2023-02-08T07:18:40.793Z,-6.79
2023-02-08T07:22:42.319Z,-6.70
2023-02-08T07:26:45.140Z,-6.62
2023-02-08T07:30:46.641Z,-6.54
2023-02-08T07:34:48.282Z,-6.48
2023-02-08T07:38:49.729Z,-6.41
2023-02-08T07:42:52.544Z,-6.39
2023-02-08T07:46:54.215Z,-6.29
2023-02-08T07:50:55.708Z,-6.09
2023-02-08T07:54:57.166Z,-5.99
2023-02-08T07:58:59.973Z,-5.92
2023-02-08T08:03:01.478Z,-5.81
2023-02-08T08:07:03.007Z,-5.79
2023-02-08T08:11:04.651Z,-5.54
2023-02-08T08:15:08.268Z,-5.41
2023-02-08T08:19:09.732Z,-5.21
2023-02-08T08:23:11.205Z,-5.02
2023-02-08T08:27:12.661Z,-4.91
2023-02-08T08:31:17.603Z,-4.77
2023-02-08T08:35:19.796Z,-4.67
2023-02-08T08:39:21.364Z,-4.62
2023-02-08T08:43:22.824Z,-4.37
2023-02-08T08:47:25.712Z,-4.16
2023-02-08T08:51:27.220Z,-3.96
2023-02-08T08:55:28.740Z,-3.87
2023-02-08T08:59:30.192Z,-3.68
2023-02-08T09:03:33.040Z,-3.60
2023-02-08T09:07:34.606Z,-3.53
2023-02-08T09:11:36.109Z,-3.49
2023-02-08T09:15:39.005Z,-3.39
2023-02-08T09:19:41.860Z,-3.30
2023-02-08T09:23:43.976Z,-3.16
2023-02-08T09:27:45.431Z,-3.22
2023-02-08T09:31:47.021Z,-3.04
2023-02-08T09:35:49.869Z,-3.03
2023-02-08T09:39:51.307Z,-2.95
2023-02-08T09:44:05.275Z,-2.77
2023-02-08T09:48:17.801Z,-2.66
2023-02-08T09:52:26.669Z,-2.54
2023-02-08T09:56:31.997Z,-2.48
2023-02-08T10:00:37.109Z,-2.51
2023-02-08T10:04:49.918Z,-2.21
2023-02-08T10:08:53.740Z,-2.13
2023-02-08T10:13:08.856Z,-2.18
2023-02-08T10:17:29.148Z,-1.99
2023-02-08T10:21:45.275Z,-2.08
2023-02-08T10:26:03.611Z,-1.84
2023-02-08T10:30:19.775Z,-1.79
2023-02-08T10:34:35.729Z,-1.77
2023-02-08T10:38:46.516Z,-1.65
2023-02-08T10:42:58.448Z,-1.56
2023-02-08T10:47:10.715Z,-1.75
2023-02-08T10:51:16.630Z,-1.52
2023-02-08T10:55:20.052Z,-1.44
2023-02-08T10:59:27.684Z,-1.21
2023-02-08T11:03:29.907Z,-1.21
2023-02-08T11:07:33.614Z,-1.23
2023-02-08T11:11:39.615Z,-1.27
2023-02-08T11:15:46.580Z,-1.36
2023-02-08T11:19:50.447Z,-1.01
2023-02-08T11:23:53.809Z,-0.79
2023-02-08T11:27:55.310Z,-0.60
2023-02-08T11:32:01.289Z,-0.84
2023-02-08T11:36:06.304Z,-0.59
2023-02-08T11:40:18.044Z,-0.50
2023-02-08T11:44:23.882Z,-0.49
2023-02-08T11:48:35.875Z,-0.35
2023-02-08T11:52:40.596Z,-0.29
2023-02-08T11:56:42.033Z,-0.23
2023-02-08T12:00:58.882Z,-0.34
2023-02-08T12:05:03.065Z,-0.29
2023-02-08T12:09:14.699Z,-0.33
2023-02-08T12:13:46.928Z,-0.02
2023-02-08T12:18:12.008Z,-0.05
2023-02-08T12:22:20.434Z,0.03
2023-02-08T12:26:42.705Z,-0.02
2023-02-08T12:30:51.290Z,0.16
2023-02-08T12:35:11.425Z,0.31
2023-02-08T12:39:29.360Z,0.22
2023-02-08T12:43:41.450Z,0.25
2023-02-08T12:48:04.046Z,0.50
2023-02-08T12:52:20.186Z,0.61
2023-02-08T12:56:27.787Z,0.57
2023-02-08T13:00:32.778Z,0.43
2023-02-08T13:04:39.119Z,0.51
2023-02-08T13:08:47.616Z,0.60
2023-02-08T13:12:52.732Z,0.57
2023-02-08T13:16:58.659Z,0.47
2023-02-08T13:21:03.109Z,0.52
2023-02-08T13:25:08.915Z,0.47
2023-02-08T13:29:18.302Z,2.21
2023-02-08T13:33:29.660Z,3.51
2023-02-08T13:37:33.277Z,2.83
2023-02-08T13:41:36.374Z,3.33
2023-02-08T13:45:42.839Z,2.53
2023-02-08T13:49:54.831Z,2.35
2023-02-08T13:54:11.848Z,1.60
2023-02-08T13:58:29.374Z,1.99
2023-02-08T14:02:32.332Z,0.82
2023-02-08T14:06:37.218Z,0.34
2023-02-08T14:10:41.957Z,-0.27
2023-02-08T14:14:43.636Z,-0.54
2023-02-08T14:18:53.061Z,-0.71
2023-02-08T14:22:57.111Z,-0.70
2023-02-08T14:27:09.255Z,-0.69
2023-02-08T14:31:12.311Z,-0.79
2023-02-08T14:35:20.972Z,-0.77
2023-02-08T14:39:25.713Z,-0.79
2023-02-08T14:43:31.117Z,-0.87
2023-02-08T14:47:53.380Z,-0.90
2023-02-08T14:52:03.812Z,-0.91
2023-02-08T14:56:14.436Z,-0.94
2023-02-08T15:00:21.172Z,-0.99
2023-02-08T15:04:22.807Z,-1.05
2023-02-08T15:08:27.059Z,-1.12
2023-02-08T15:12:31.996Z,-1.16
2023-02-08T15:16:36.200Z,-1.26
2023-02-08T15:20:37.868Z,-1.33
2023-02-08T15:24:49.975Z,-1.38
2023-02-08T15:28:51.945Z,-1.42
2023-02-08T15:32:54.468Z,-1.46
2023-02-08T15:36:56.715Z,-1.48
2023-02-08T15:41:08.016Z,-1.55
2023-02-08T15:45:24.213Z,-1.66
2023-02-08T15:49:31.107Z,-1.67
2023-02-08T15:53:32.800Z,-1.71
2023-02-08T15:57:40.780Z,-1.75
2023-02-08T16:01:46.425Z,-1.85
2023-02-08T16:05:49.629Z,-1.97
2023-02-08T16:09:51.307Z,-2.09
2023-02-08T16:13:57.284Z,-2.21
2023-02-08T16:17:58.740Z,-2.32
2023-02-08T16:22:22.881Z,-2.40
2023-02-08T16:26:28.444Z,-2.48
2023-02-08T16:30:31.981Z,-2.52
2023-02-08T16:34:35.380Z,-2.59
2023-02-08T16:38:36.876Z,-2.66
2023-02-08T16:42:39.124Z,-2.72
2023-02-08T16:46:45.001Z,-2.84
2023-02-08T16:50:46.498Z,-2.95
2023-02-08T16:54:47.957Z,-3.04
2023-02-08T16:58:49.877Z,-3.03
2023-02-08T17:02:53.227Z,-3.06
2023-02-08T17:06:54.661Z,-2.93
2023-02-08T17:10:56.180Z,-2.84
2023-02-08T17:14:57.633Z,-2.79
2023-02-08T17:19:01.488Z,-2.93
2023-02-08T17:23:04.356Z,-3.02
2023-02-08T17:27:05.933Z,-3.13
2023-02-08T17:31:10.063Z,-3.16
2023-02-08T17:35:14.979Z,-3.22
2023-02-08T17:39:16.506Z,-3.21
2023-02-08T17:43:18.135Z,-3.23
2023-02-08T17:47:19.623Z,-3.14
2023-02-08T17:51:24.047Z,-3.19
2023-02-08T17:55:25.570Z,-3.28
2023-02-08T17:59:27.133Z,-3.44
2023-02-08T18:03:28.666Z,-3.53
2023-02-08T18:07:31.445Z,-3.53
2023-02-08T18:11:32.956Z,-3.46
2023-02-08T18:15:34.635Z,-3.34
2023-02-08T18:19:37.206Z,-3.23
2023-02-08T18:23:40.677Z,-3.31
2023-02-08T18:27:42.255Z,-3.42
2023-02-08T18:31:43.835Z,-3.45
2023-02-08T18:35:48.497Z,-3.42
2023-02-08T18:39:51.352Z,-3.49
2023-02-08T18:43:54.242Z,-3.41
2023-02-08T18:47:55.783Z,-3.49
2023-02-08T18:51:57.414Z,-3.44
2023-02-08T18:56:02.155Z,-3.47
2023-02-08T19:00:04.242Z,-3.51
2023-02-08T19:04:05.772Z,-3.58
2023-02-08T19:08:07.310Z,-3.62
2023-02-08T19:12:10.175Z,-3.62
2023-02-08T19:16:11.913Z,-3.62
2023-02-08T19:20:13.430Z,-3.61
2023-02-08T19:24:15.417Z,-3.47
2023-02-08T19:28:18.658Z,-3.38
2023-02-08T19:32:20.379Z,-3.18
2023-02-08T19:36:23.849Z,-3.19
2023-02-08T19:40:25.326Z,-3.17
2023-02-08T19:44:30.450Z,-3.12
2023-02-08T19:48:32.163Z,-3.19
2023-02-08T19:52:33.620Z,-3.26
2023-02-08T19:56:35.081Z,-3.29
2023-02-08T20:00:37.940Z,-3.44
2023-02-08T20:04:40.199Z,-3.44
2023-02-08T20:08:41.798Z,-3.43
2023-02-08T20:12:43.306Z,-3.38
2023-02-08T20:16:46.220Z,-3.48
2023-02-08T20:20:59.091Z,-3.39
2023-02-08T20:25:00.554Z,-3.30
2023-02-08T20:29:02.033Z,-3.29
2023-02-08T20:33:05.015Z,-3.29
2023-02-08T20:37:08.233Z,-3.24
2023-02-08T20:41:12.208Z,-3.28
2023-02-08T20:45:15.326Z,-3.25
2023-02-08T20:49:18.252Z,-3.12
2023-02-08T20:53:19.740Z,-3.14
2023-02-08T20:57:21.264Z,-3.00
2023-02-08T21:01:25.445Z,-2.94
2023-02-08T21:05:29.387Z,-2.90
2023-02-08T21:09:30.948Z,-2.87
2023-02-08T21:13:32.546Z,-2.85
2023-02-08T21:17:34.090Z,-2.73
2023-02-08T21:21:37.033Z,-2.71
2023-02-08T21:25:39.258Z,-2.82
2023-02-08T21:29:40.699Z,-2.84
2023-02-08T21:33:42.994Z,-2.91
2023-02-08T21:37:45.812Z,-2.86
2023-02-08T21:41:47.236Z,-2.81
2023-02-08T21:45:48.705Z,-2.76
2023-02-08T21:49:50.252Z,-2.69
2023-02-08T21:53:53.055Z,-2.57
2023-02-08T21:57:54.524Z,-2.58
2023-02-08T22:01:55.953Z,-2.50
2023-02-08T22:05:57.428Z,-2.59
2023-02-08T22:10:00.194Z,-2.58
2023-02-08T22:14:01.652Z,-2.57
2023-02-08T22:18:03.548Z,-2.56
2023-02-08T22:22:05.073Z,-2.58
2023-02-08T22:26:09.576Z,-2.59
2023-02-08T22:30:14.160Z,-2.62
2023-02-08T22:34:15.626Z,-2.67
2023-02-08T22:38:17.049Z,-2.65
2023-02-08T22:42:19.881Z,-2.76
2023-02-08T22:46:21.442Z,-2.79
2023-02-08T22:50:22.915Z,-2.84
2023-02-08T22:54:24.897Z,-2.86
2023-02-08T22:58:27.757Z,-2.85
2023-02-08T23:02:29.259Z,-2.89
2023-02-08T23:06:30.760Z,-2.95
2023-02-08T23:10:32.203Z,-2.94
2023-02-08T23:14:34.966Z,-2.91
2023-02-08T23:18:36.489Z,-2.97
2023-02-08T23:22:37.938Z,-3.01
2023-02-08T23:26:40.637Z,-3.03
2023-02-08T23:30:44.368Z,-3.08
2023-02-08T23:34:46.086Z,-3.18
2023-02-08T23:38:47.948Z,-3.24
2023-02-08T23:42:49.387Z,-3.26
2023-02-08T23:46:52.276Z,-3.36
2023-02-08T23:50:57.760Z,-3.40
2023-02-08T23:54:59.197Z,-3.43
2023-02-08T23:59:00.713Z,-3.52
